sensor_id;sensor_type;location;lat;lon;timestamp;P1;durP1;ratioP1;P2;durP2;ratioP2
28266;SDS011;15525;45.568;5.448;2022-07-12T00:02:23;4.60;;;3.58;;
28266;SDS011;15525;45.568;5.448;2022-07-12T00:04:48;5.70;;;4.18;;
28266;SDS011;15525;45.568;5.448;2022-07-12T00:07:14;4.32;;;3.70;;
28266;SDS011;15525;45.568;5.448;2022-07-12T00:09:39;7.15;;;3.72;;
28266;SDS011;15525;45.568;5.448;2022-07-12T00:12:04;4.22;;;3.75;;
28266;SDS011;15525;45.568;5.448;2022-07-12T00:14:30;5.88;;;3.50;;
28266;SDS011;15525;45.568;5.448;2022-07-12T00:16:56;5.40;;;3.90;;
28266;SDS011;15525;45.568;5.448;2022-07-12T00:19:21;6.10;;;3.50;;
28266;SDS011;15525;45.568;5.448;2022-07-12T00:21:47;5.55;;;3.65;;
28266;SDS011;15525;45.568;5.448;2022-07-12T00:24:12;5.40;;;3.80;;
28266;SDS011;15525;45.568;5.448;2022-07-12T00:26:38;4.40;;;3.28;;
28266;SDS011;15525;45.568;5.448;2022-07-12T00:29:03;5.20;;;3.88;;
28266;SDS011;15525;45.568;5.448;2022-07-12T00:31:28;6.45;;;4.00;;
28266;SDS011;15525;45.568;5.448;2022-07-12T00:33:54;5.25;;;3.67;;
28266;SDS011;15525;45.568;5.448;2022-07-12T00:36:19;6.60;;;4.30;;
28266;SDS011;15525;45.568;5.448;2022-07-12T00:38:45;4.63;;;3.95;;
28266;SDS011;15525;45.568;5.448;2022-07-12T00:41:11;7.03;;;3.80;;
28266;SDS011;15525;45.568;5.448;2022-07-12T00:43:36;11.93;;;4.88;;
28266;SDS011;15525;45.568;5.448;2022-07-12T00:46:01;6.57;;;4.32;;
28266;SDS011;15525;45.568;5.448;2022-07-12T00:48:27;5.50;;;4.25;;
28266;SDS011;15525;45.568;5.448;2022-07-12T00:50:52;8.38;;;4.22;;
28266;SDS011;15525;45.568;5.448;2022-07-12T00:53:18;6.93;;;4.30;;
28266;SDS011;15525;45.568;5.448;2022-07-12T00:55:48;6.45;;;4.05;;
28266;SDS011;15525;45.568;5.448;2022-07-12T00:58:17;5.47;;;3.85;;
28266;SDS011;15525;45.568;5.448;2022-07-12T01:00:43;5.68;;;4.03;;
28266;SDS011;15525;45.568;5.448;2022-07-12T01:03:08;5.10;;;3.85;;
28266;SDS011;15525;45.568;5.448;2022-07-12T01:05:33;6.60;;;3.92;;
28266;SDS011;15525;45.568;5.448;2022-07-12T01:07:59;6.07;;;4.18;;
28266;SDS011;15525;45.568;5.448;2022-07-12T01:10:25;5.13;;;4.15;;
28266;SDS011;15525;45.568;5.448;2022-07-12T01:12:51;6.47;;;3.83;;
28266;SDS011;15525;45.568;5.448;2022-07-12T01:15:16;5.93;;;3.67;;
28266;SDS011;15525;45.568;5.448;2022-07-12T01:17:45;6.07;;;3.90;;
28266;SDS011;15525;45.568;5.448;2022-07-12T01:20:11;6.10;;;4.07;;
28266;SDS011;15525;45.568;5.448;2022-07-12T01:22:38;4.38;;;3.75;;
28266;SDS011;15525;45.568;5.448;2022-07-12T01:25:08;7.63;;;3.72;;
28266;SDS011;15525;45.568;5.448;2022-07-12T01:27:34;5.38;;;3.80;;
28266;SDS011;15525;45.568;5.448;2022-07-12T01:30:02;5.68;;;4.22;;
28266;SDS011;15525;45.568;5.448;2022-07-12T01:32:28;6.75;;;3.97;;
28266;SDS011;15525;45.568;5.448;2022-07-12T01:34:56;5.40;;;4.30;;
28266;SDS011;15525;45.568;5.448;2022-07-12T01:37:33;5.25;;;3.90;;
28266;SDS011;15525;45.568;5.448;2022-07-12T01:40:04;7.82;;;4.07;;
28266;SDS011;15525;45.568;5.448;2022-07-12T01:42:31;5.93;;;3.90;;
28266;SDS011;15525;45.568;5.448;2022-07-12T01:44:57;5.35;;;4.10;;
28266;SDS011;15525;45.568;5.448;2022-07-12T01:47:23;4.32;;;3.70;;
28266;SDS011;15525;45.568;5.448;2022-07-12T01:49:50;6.03;;;4.00;;
28266;SDS011;15525;45.568;5.448;2022-07-12T01:52:16;4.82;;;4.20;;
28266;SDS011;15525;45.568;5.448;2022-07-12T01:54:42;6.28;;;3.95;;
28266;SDS011;15525;45.568;5.448;2022-07-12T01:57:08;4.88;;;4.18;;
28266;SDS011;15525;45.568;5.448;2022-07-12T01:59:34;5.22;;;3.78;;
28266;SDS011;15525;45.568;5.448;2022-07-12T02:02:01;5.25;;;3.60;;
28266;SDS011;15525;45.568;5.448;2022-07-12T02:04:27;4.88;;;3.60;;
28266;SDS011;15525;45.568;5.448;2022-07-12T02:06:53;6.43;;;4.15;;
28266;SDS011;15525;45.568;5.448;2022-07-12T02:09:20;4.72;;;3.40;;
28266;SDS011;15525;45.568;5.448;2022-07-12T02:11:45;4.72;;;4.05;;
28266;SDS011;15525;45.568;5.448;2022-07-12T02:14:13;4.50;;;3.65;;
28266;SDS011;15525;45.568;5.448;2022-07-12T02:16:39;6.75;;;3.90;;
28266;SDS011;15525;45.568;5.448;2022-07-12T02:19:06;4.10;;;3.70;;
28266;SDS011;15525;45.568;5.448;2022-07-12T02:21:32;4.13;;;3.50;;
28266;SDS011;15525;45.568;5.448;2022-07-12T02:23:58;3.80;;;3.47;;
28266;SDS011;15525;45.568;5.448;2022-07-12T02:26:24;6.28;;;3.80;;
28266;SDS011;15525;45.568;5.448;2022-07-12T02:28:49;4.63;;;3.60;;
28266;SDS011;15525;45.568;5.448;2022-07-12T02:31:15;6.68;;;3.70;;
28266;SDS011;15525;45.568;5.448;2022-07-12T02:33:40;5.75;;;3.90;;
28266;SDS011;15525;45.568;5.448;2022-07-12T02:36:06;6.22;;;4.15;;
28266;SDS011;15525;45.568;5.448;2022-07-12T02:38:32;5.70;;;3.80;;
28266;SDS011;15525;45.568;5.448;2022-07-12T02:40:57;5.38;;;3.72;;
28266;SDS011;15525;45.568;5.448;2022-07-12T02:43:27;6.47;;;3.63;;
28266;SDS011;15525;45.568;5.448;2022-07-12T02:46:03;4.27;;;3.87;;
28266;SDS011;15525;45.568;5.448;2022-07-12T02:48:30;5.10;;;3.88;;
28266;SDS011;15525;45.568;5.448;2022-07-12T02:50:55;5.15;;;3.65;;
28266;SDS011;15525;45.568;5.448;2022-07-12T02:53:21;4.47;;;3.33;;
28266;SDS011;15525;45.568;5.448;2022-07-12T02:55:47;6.57;;;3.88;;
28266;SDS011;15525;45.568;5.448;2022-07-12T02:58:13;6.38;;;3.70;;
28266;SDS011;15525;45.568;5.448;2022-07-12T03:00:38;5.35;;;3.60;;
28266;SDS011;15525;45.568;5.448;2022-07-12T03:03:05;6.55;;;3.90;;
28266;SDS011;15525;45.568;5.448;2022-07-12T03:05:34;4.60;;;3.60;;
28266;SDS011;15525;45.568;5.448;2022-07-12T03:08:00;4.72;;;3.75;;
28266;SDS011;15525;45.568;5.448;2022-07-12T03:10:26;6.35;;;3.95;;
28266;SDS011;15525;45.568;5.448;2022-07-12T03:12:51;5.50;;;4.20;;
28266;SDS011;15525;45.568;5.448;2022-07-12T03:15:17;6.00;;;4.00;;
28266;SDS011;15525;45.568;5.448;2022-07-12T03:17:42;5.18;;;3.88;;
28266;SDS011;15525;45.568;5.448;2022-07-12T03:20:08;6.05;;;3.47;;
28266;SDS011;15525;45.568;5.448;2022-07-12T03:22:36;4.63;;;3.60;;
28266;SDS011;15525;45.568;5.448;2022-07-12T03:25:02;5.35;;;3.85;;
28266;SDS011;15525;45.568;5.448;2022-07-12T03:27:29;5.18;;;3.97;;
28266;SDS011;15525;45.568;5.448;2022-07-12T03:29:56;4.32;;;3.65;;
28266;SDS011;15525;45.568;5.448;2022-07-12T03:32:22;10.30;;;5.72;;
28266;SDS011;15525;45.568;5.448;2022-07-12T03:34:48;6.22;;;3.90;;
28266;SDS011;15525;45.568;5.448;2022-07-12T03:37:13;4.25;;;3.85;;
28266;SDS011;15525;45.568;5.448;2022-07-12T03:39:38;6.78;;;3.92;;
28266;SDS011;15525;45.568;5.448;2022-07-12T03:42:04;7.47;;;4.25;;
28266;SDS011;15525;45.568;5.448;2022-07-12T03:44:29;4.00;;;3.60;;
28266;SDS011;15525;45.568;5.448;2022-07-12T03:46:55;6.22;;;3.70;;
28266;SDS011;15525;45.568;5.448;2022-07-12T03:49:21;4.60;;;4.10;;
28266;SDS011;15525;45.568;5.448;2022-07-12T03:51:46;6.22;;;4.00;;
28266;SDS011;15525;45.568;5.448;2022-07-12T03:54:11;5.20;;;3.35;;
28266;SDS011;15525;45.568;5.448;2022-07-12T03:56:37;6.78;;;4.00;;
28266;SDS011;15525;45.568;5.448;2022-07-12T03:59:21;4.90;;;4.00;;
28266;SDS011;15525;45.568;5.448;2022-07-12T04:01:46;5.05;;;4.18;;
28266;SDS011;15525;45.568;5.448;2022-07-12T04:04:12;5.78;;;4.20;;
28266;SDS011;15525;45.568;5.448;2022-07-12T04:06:38;4.90;;;4.13;;
28266;SDS011;15525;45.568;5.448;2022-07-12T04:09:06;4.70;;;3.63;;
28266;SDS011;15525;45.568;5.448;2022-07-12T04:11:32;7.43;;;4.50;;
28266;SDS011;15525;45.568;5.448;2022-07-12T04:13:58;8.27;;;4.13;;
28266;SDS011;15525;45.568;5.448;2022-07-12T04:16:24;5.13;;;3.95;;
28266;SDS011;15525;45.568;5.448;2022-07-12T04:18:50;4.80;;;3.92;;
28266;SDS011;15525;45.568;5.448;2022-07-12T04:21:15;6.18;;;4.80;;
28266;SDS011;15525;45.568;5.448;2022-07-12T04:23:41;4.93;;;4.22;;
28266;SDS011;15525;45.568;5.448;2022-07-12T04:26:06;7.70;;;4.18;;
28266;SDS011;15525;45.568;5.448;2022-07-12T04:28:31;6.00;;;3.65;;
28266;SDS011;15525;45.568;5.448;2022-07-12T04:30:57;5.55;;;4.15;;
28266;SDS011;15525;45.568;5.448;2022-07-12T04:33:22;4.95;;;3.92;;
28266;SDS011;15525;45.568;5.448;2022-07-12T04:35:48;5.97;;;4.00;;
28266;SDS011;15525;45.568;5.448;2022-07-12T04:38:13;7.57;;;4.22;;
28266;SDS011;15525;45.568;5.448;2022-07-12T04:40:39;8.90;;;4.72;;
28266;SDS011;15525;45.568;5.448;2022-07-12T04:43:04;5.82;;;4.20;;
28266;SDS011;15525;45.568;5.448;2022-07-12T04:45:30;7.30;;;4.60;;
28266;SDS011;15525;45.568;5.448;2022-07-12T04:47:55;9.93;;;4.65;;
28266;SDS011;15525;45.568;5.448;2022-07-12T04:50:20;8.32;;;4.95;;
28266;SDS011;15525;45.568;5.448;2022-07-12T04:52:46;7.30;;;4.65;;
28266;SDS011;15525;45.568;5.448;2022-07-12T04:55:11;5.68;;;4.57;;
28266;SDS011;15525;45.568;5.448;2022-07-12T04:57:37;6.53;;;4.63;;
28266;SDS011;15525;45.568;5.448;2022-07-12T05:00:05;7.13;;;4.95;;
28266;SDS011;15525;45.568;5.448;2022-07-12T05:02:32;9.35;;;5.18;;
28266;SDS011;15525;45.568;5.448;2022-07-12T05:04:58;7.45;;;5.43;;
28266;SDS011;15525;45.568;5.448;2022-07-12T05:07:23;8.25;;;5.50;;
28266;SDS011;15525;45.568;5.448;2022-07-12T05:09:49;9.43;;;5.43;;
28266;SDS011;15525;45.568;5.448;2022-07-12T05:12:16;10.57;;;6.10;;
28266;SDS011;15525;45.568;5.448;2022-07-12T05:14:41;13.13;;;5.93;;
28266;SDS011;15525;45.568;5.448;2022-07-12T05:17:07;14.30;;;5.93;;
28266;SDS011;15525;45.568;5.448;2022-07-12T05:19:32;9.85;;;5.97;;
28266;SDS011;15525;45.568;5.448;2022-07-12T05:21:58;9.10;;;5.70;;
28266;SDS011;15525;45.568;5.448;2022-07-12T05:24:23;11.30;;;5.65;;
28266;SDS011;15525;45.568;5.448;2022-07-12T05:26:48;8.00;;;5.60;;
28266;SDS011;15525;45.568;5.448;2022-07-12T05:29:14;7.60;;;5.20;;
28266;SDS011;15525;45.568;5.448;2022-07-12T05:31:39;8.40;;;5.00;;
28266;SDS011;15525;45.568;5.448;2022-07-12T05:34:05;8.70;;;5.35;;
28266;SDS011;15525;45.568;5.448;2022-07-12T05:36:30;8.50;;;5.57;;
28266;SDS011;15525;45.568;5.448;2022-07-12T05:38:56;9.27;;;5.22;;
28266;SDS011;15525;45.568;5.448;2022-07-12T05:41:21;7.18;;;5.40;;
28266;SDS011;15525;45.568;5.448;2022-07-12T05:43:46;9.00;;;5.18;;
28266;SDS011;15525;45.568;5.448;2022-07-12T05:46:12;8.95;;;5.05;;
28266;SDS011;15525;45.568;5.448;2022-07-12T05:48:38;8.30;;;4.85;;
28266;SDS011;15525;45.568;5.448;2022-07-12T05:51:04;8.55;;;5.22;;
28266;SDS011;15525;45.568;5.448;2022-07-12T05:53:48;10.52;;;6.28;;
28266;SDS011;15525;45.568;5.448;2022-07-12T05:56:13;15.85;;;7.57;;
28266;SDS011;15525;45.568;5.448;2022-07-12T05:58:39;14.55;;;7.68;;
28266;SDS011;15525;45.568;5.448;2022-07-12T06:01:05;14.88;;;7.78;;
28266;SDS011;15525;45.568;5.448;2022-07-12T06:03:31;12.02;;;7.35;;
28266;SDS011;15525;45.568;5.448;2022-07-12T06:05:57;12.68;;;7.88;;
28266;SDS011;15525;45.568;5.448;2022-07-12T06:08:22;14.55;;;8.10;;
28266;SDS011;15525;45.568;5.448;2022-07-12T06:10:47;13.80;;;8.50;;
28266;SDS011;15525;45.568;5.448;2022-07-12T06:13:13;13.93;;;9.40;;
28266;SDS011;15525;45.568;5.448;2022-07-12T06:15:39;16.98;;;10.43;;
28266;SDS011;15525;45.568;5.448;2022-07-12T06:18:04;19.15;;;11.80;;
28266;SDS011;15525;45.568;5.448;2022-07-12T06:20:30;17.75;;;11.20;;
28266;SDS011;15525;45.568;5.448;2022-07-12T06:22:55;14.73;;;8.48;;
28266;SDS011;15525;45.568;5.448;2022-07-12T06:25:21;15.73;;;8.55;;
28266;SDS011;15525;45.568;5.448;2022-07-12T06:27:48;12.10;;;8.45;;
28266;SDS011;15525;45.568;5.448;2022-07-12T06:30:17;9.43;;;7.10;;
28266;SDS011;15525;45.568;5.448;2022-07-12T06:32:47;9.82;;;7.15;;
28266;SDS011;15525;45.568;5.448;2022-07-12T06:35:13;11.68;;;7.22;;
28266;SDS011;15525;45.568;5.448;2022-07-12T06:37:39;11.10;;;7.22;;
28266;SDS011;15525;45.568;5.448;2022-07-12T06:40:05;10.60;;;7.78;;
28266;SDS011;15525;45.568;5.448;2022-07-12T06:42:32;9.63;;;6.72;;
28266;SDS011;15525;45.568;5.448;2022-07-12T06:44:57;11.65;;;6.38;;
28266;SDS011;15525;45.568;5.448;2022-07-12T06:47:23;12.43;;;6.10;;
28266;SDS011;15525;45.568;5.448;2022-07-12T06:49:48;6.70;;;5.50;;
28266;SDS011;15525;45.568;5.448;2022-07-12T06:52:14;9.52;;;5.90;;
28266;SDS011;15525;45.568;5.448;2022-07-12T06:54:39;6.45;;;5.35;;
28266;SDS011;15525;45.568;5.448;2022-07-12T06:57:05;6.05;;;5.15;;
28266;SDS011;15525;45.568;5.448;2022-07-12T06:59:31;7.57;;;4.75;;
28266;SDS011;15525;45.568;5.448;2022-07-12T07:01:56;4.88;;;4.03;;
28266;SDS011;15525;45.568;5.448;2022-07-12T07:04:22;7.07;;;4.30;;
28266;SDS011;15525;45.568;5.448;2022-07-12T07:06:49;6.07;;;3.50;;
28266;SDS011;15525;45.568;5.448;2022-07-12T07:09:15;3.58;;;2.75;;
28266;SDS011;15525;45.568;5.448;2022-07-12T07:11:40;5.53;;;3.10;;
28266;SDS011;15525;45.568;5.448;2022-07-12T07:14:07;3.20;;;2.60;;
28266;SDS011;15525;45.568;5.448;2022-07-12T07:16:32;5.50;;;2.47;;
28266;SDS011;15525;45.568;5.448;2022-07-12T07:18:57;5.30;;;2.38;;
28266;SDS011;15525;45.568;5.448;2022-07-12T07:21:23;5.13;;;2.47;;
28266;SDS011;15525;45.568;5.448;2022-07-12T07:23:49;5.90;;;2.60;;
28266;SDS011;15525;45.568;5.448;2022-07-12T07:26:15;3.65;;;2.30;;
28266;SDS011;15525;45.568;5.448;2022-07-12T07:28:41;3.53;;;2.50;;
28266;SDS011;15525;45.568;5.448;2022-07-12T07:31:26;2.95;;;2.10;;
28266;SDS011;15525;45.568;5.448;2022-07-12T07:33:51;4.22;;;2.25;;
28266;SDS011;15525;45.568;5.448;2022-07-12T07:36:16;2.85;;;2.30;;
28266;SDS011;15525;45.568;5.448;2022-07-12T07:38:42;3.72;;;2.45;;
28266;SDS011;15525;45.568;5.448;2022-07-12T07:41:07;4.60;;;2.47;;
28266;SDS011;15525;45.568;5.448;2022-07-12T07:43:33;3.55;;;2.65;;
28266;SDS011;15525;45.568;5.448;2022-07-12T07:45:58;3.65;;;2.58;;
28266;SDS011;15525;45.568;5.448;2022-07-12T07:48:24;2.80;;;2.13;;
28266;SDS011;15525;45.568;5.448;2022-07-12T07:50:49;4.93;;;2.60;;
28266;SDS011;15525;45.568;5.448;2022-07-12T07:53:15;3.13;;;2.17;;
28266;SDS011;15525;45.568;5.448;2022-07-12T07:55:40;3.70;;;2.67;;
28266;SDS011;15525;45.568;5.448;2022-07-12T07:58:06;3.70;;;2.10;;
28266;SDS011;15525;45.568;5.448;2022-07-12T08:00:32;3.10;;;2.20;;
28266;SDS011;15525;45.568;5.448;2022-07-12T08:02:57;4.55;;;2.20;;
28266;SDS011;15525;45.568;5.448;2022-07-12T08:05:23;5.78;;;2.72;;
28266;SDS011;15525;45.568;5.448;2022-07-12T08:07:49;3.22;;;2.10;;
28266;SDS011;15525;45.568;5.448;2022-07-12T08:10:14;4.57;;;2.10;;
28266;SDS011;15525;45.568;5.448;2022-07-12T08:12:40;8.20;;;2.25;;
28266;SDS011;15525;45.568;5.448;2022-07-12T08:15:06;3.97;;;2.42;;
28266;SDS011;15525;45.568;5.448;2022-07-12T08:17:31;4.03;;;2.20;;
28266;SDS011;15525;45.568;5.448;2022-07-12T08:19:58;3.75;;;2.05;;
28266;SDS011;15525;45.568;5.448;2022-07-12T08:22:23;5.22;;;2.40;;
28266;SDS011;15525;45.568;5.448;2022-07-12T08:24:49;3.33;;;2.50;;
28266;SDS011;15525;45.568;5.448;2022-07-12T08:27:15;3.25;;;2.30;;
28266;SDS011;15525;45.568;5.448;2022-07-12T08:29:41;6.07;;;2.17;;
28266;SDS011;15525;45.568;5.448;2022-07-12T08:32:06;3.15;;;1.98;;
28266;SDS011;15525;45.568;5.448;2022-07-12T08:34:33;2.20;;;1.98;;
28266;SDS011;15525;45.568;5.448;2022-07-12T08:36:58;2.58;;;2.10;;
28266;SDS011;15525;45.568;5.448;2022-07-12T08:39:24;3.25;;;2.28;;
28266;SDS011;15525;45.568;5.448;2022-07-12T08:41:49;6.28;;;2.20;;
28266;SDS011;15525;45.568;5.448;2022-07-12T08:44:14;4.13;;;2.35;;
28266;SDS011;15525;45.568;5.448;2022-07-12T08:46:40;3.85;;;2.13;;
28266;SDS011;15525;45.568;5.448;2022-07-12T08:49:06;2.58;;;2.15;;
28266;SDS011;15525;45.568;5.448;2022-07-12T08:51:34;3.78;;;2.10;;
28266;SDS011;15525;45.568;5.448;2022-07-12T08:54:09;3.22;;;2.30;;
28266;SDS011;15525;45.568;5.448;2022-07-12T08:56:37;2.80;;;2.42;;
28266;SDS011;15525;45.568;5.448;2022-07-12T08:59:08;4.47;;;2.88;;
28266;SDS011;15525;45.568;5.448;2022-07-12T09:04:11;5.22;;;3.10;;
28266;SDS011;15525;45.568;5.448;2022-07-12T09:06:39;4.20;;;2.90;;
28266;SDS011;15525;45.568;5.448;2022-07-12T09:09:05;4.45;;;2.80;;
28266;SDS011;15525;45.568;5.448;2022-07-12T09:11:33;5.05;;;2.80;;
28266;SDS011;15525;45.568;5.448;2022-07-12T09:14:02;4.82;;;3.22;;
28266;SDS011;15525;45.568;5.448;2022-07-12T09:16:28;4.20;;;2.05;;
28266;SDS011;15525;45.568;5.448;2022-07-12T09:21:51;2.95;;;2.25;;
28266;SDS011;15525;45.568;5.448;2022-07-12T09:24:18;3.10;;;2.10;;
28266;SDS011;15525;45.568;5.448;2022-07-12T09:26:45;6.60;;;2.15;;
28266;SDS011;15525;45.568;5.448;2022-07-12T09:29:11;2.47;;;2.10;;
28266;SDS011;15525;45.568;5.448;2022-07-12T09:31:56;3.17;;;2.00;;
28266;SDS011;15525;45.568;5.448;2022-07-12T09:34:40;5.00;;;2.00;;
28266;SDS011;15525;45.568;5.448;2022-07-12T09:37:25;2.65;;;2.03;;
28266;SDS011;15525;45.568;5.448;2022-07-12T09:39:52;2.95;;;1.98;;
28266;SDS011;15525;45.568;5.448;2022-07-12T09:42:18;3.50;;;2.08;;
28266;SDS011;15525;45.568;5.448;2022-07-12T09:44:44;2.13;;;1.92;;
28266;SDS011;15525;45.568;5.448;2022-07-12T09:47:11;4.55;;;2.05;;
28266;SDS011;15525;45.568;5.448;2022-07-12T09:49:41;2.05;;;1.85;;
28266;SDS011;15525;45.568;5.448;2022-07-12T09:52:21;3.13;;;1.73;;
28266;SDS011;15525;45.568;5.448;2022-07-12T09:54:49;3.15;;;2.05;;
28266;SDS011;15525;45.568;5.448;2022-07-12T09:57:26;4.50;;;2.10;;
28266;SDS011;15525;45.568;5.448;2022-07-12T09:59:54;3.85;;;2.33;;
28266;SDS011;15525;45.568;5.448;2022-07-12T10:02:25;4.57;;;2.00;;
28266;SDS011;15525;45.568;5.448;2022-07-12T10:04:51;2.00;;;1.90;;
28266;SDS011;15525;45.568;5.448;2022-07-12T10:07:17;1.92;;;1.80;;
28266;SDS011;15525;45.568;5.448;2022-07-12T10:09:44;3.88;;;1.83;;
28266;SDS011;15525;45.568;5.448;2022-07-12T10:12:13;2.10;;;1.92;;
28266;SDS011;15525;45.568;5.448;2022-07-12T10:14:41;2.30;;;2.10;;
28266;SDS011;15525;45.568;5.448;2022-07-12T10:17:09;4.90;;;2.30;;
28266;SDS011;15525;45.568;5.448;2022-07-12T10:19:36;3.00;;;2.33;;
28266;SDS011;15525;45.568;5.448;2022-07-12T10:22:03;2.42;;;2.10;;
28266;SDS011;15525;45.568;5.448;2022-07-12T10:29:25;3.15;;;2.10;;
28266;SDS011;15525;45.568;5.448;2022-07-12T10:31:51;2.60;;;1.80;;
28266;SDS011;15525;45.568;5.448;2022-07-12T10:34:21;3.95;;;2.10;;
28266;SDS011;15525;45.568;5.448;2022-07-12T10:39:22;3.13;;;2.13;;
28266;SDS011;15525;45.568;5.448;2022-07-12T10:44:35;2.45;;;2.25;;
28266;SDS011;15525;45.568;5.448;2022-07-12T10:47:03;3.55;;;2.20;;
28266;SDS011;15525;45.568;5.448;2022-07-12T10:49:30;3.80;;;2.30;;
28266;SDS011;15525;45.568;5.448;2022-07-12T10:57:04;3.08;;;2.13;;
28266;SDS011;15525;45.568;5.448;2022-07-12T10:59:31;4.03;;;2.35;;
28266;SDS011;15525;45.568;5.448;2022-07-12T11:01:59;2.38;;;2.17;;
28266;SDS011;15525;45.568;5.448;2022-07-12T11:04:25;2.42;;;2.20;;
28266;SDS011;15525;45.568;5.448;2022-07-12T11:06:50;3.05;;;2.22;;
28266;SDS011;15525;45.568;5.448;2022-07-12T11:09:20;2.70;;;2.17;;
28266;SDS011;15525;45.568;5.448;2022-07-12T11:11:50;3.40;;;2.13;;
28266;SDS011;15525;45.568;5.448;2022-07-12T11:14:20;4.47;;;2.40;;
28266;SDS011;15525;45.568;5.448;2022-07-12T11:16:47;2.80;;;2.60;;
28266;SDS011;15525;45.568;5.448;2022-07-12T11:19:14;2.80;;;2.45;;
28266;SDS011;15525;45.568;5.448;2022-07-12T11:21:46;4.10;;;2.55;;
28266;SDS011;15525;45.568;5.448;2022-07-12T11:26:46;4.20;;;2.30;;
28266;SDS011;15525;45.568;5.448;2022-07-12T11:29:12;2.53;;;2.28;;
28266;SDS011;15525;45.568;5.448;2022-07-12T11:31:38;3.10;;;2.38;;
28266;SDS011;15525;45.568;5.448;2022-07-12T11:34:03;3.70;;;2.60;;
28266;SDS011;15525;45.568;5.448;2022-07-12T11:36:28;5.50;;;2.70;;
28266;SDS011;15525;45.568;5.448;2022-07-12T11:38:55;4.57;;;2.42;;
28266;SDS011;15525;45.568;5.448;2022-07-12T11:41:21;3.90;;;2.30;;
28266;SDS011;15525;45.568;5.448;2022-07-12T11:43:48;4.35;;;2.28;;
28266;SDS011;15525;45.568;5.448;2022-07-12T11:46:14;3.58;;;2.60;;
28266;SDS011;15525;45.568;5.448;2022-07-12T11:48:41;4.30;;;2.47;;
28266;SDS011;15525;45.568;5.448;2022-07-12T11:51:08;3.00;;;2.75;;
28266;SDS011;15525;45.568;5.448;2022-07-12T11:53:35;4.28;;;2.40;;
28266;SDS011;15525;45.568;5.448;2022-07-12T11:56:02;2.50;;;2.30;;
28266;SDS011;15525;45.568;5.448;2022-07-12T11:58:30;2.80;;;2.55;;
28266;SDS011;15525;45.568;5.448;2022-07-12T12:00:57;3.45;;;2.50;;
28266;SDS011;15525;45.568;5.448;2022-07-12T12:03:23;3.78;;;2.60;;
28266;SDS011;15525;45.568;5.448;2022-07-12T12:05:53;2.50;;;2.30;;
28266;SDS011;15525;45.568;5.448;2022-07-12T12:08:22;4.63;;;2.13;;
28266;SDS011;15525;45.568;5.448;2022-07-12T12:10:55;4.97;;;2.42;;
28266;SDS011;15525;45.568;5.448;2022-07-12T12:13:25;2.85;;;2.55;;
28266;SDS011;15525;45.568;5.448;2022-07-12T12:15:52;8.15;;;2.92;;
28266;SDS011;15525;45.568;5.448;2022-07-12T12:21:03;2.78;;;2.25;;
28266;SDS011;15525;45.568;5.448;2022-07-12T12:23:36;3.05;;;2.38;;
28266;SDS011;15525;45.568;5.448;2022-07-12T12:28:51;3.60;;;2.35;;
28266;SDS011;15525;45.568;5.448;2022-07-12T12:31:18;2.50;;;2.00;;
28266;SDS011;15525;45.568;5.448;2022-07-12T12:33:46;3.33;;;2.00;;
28266;SDS011;15525;45.568;5.448;2022-07-12T12:38:45;3.17;;;2.28;;
28266;SDS011;15525;45.568;5.448;2022-07-12T12:41:12;4.57;;;2.45;;
28266;SDS011;15525;45.568;5.448;2022-07-12T12:43:38;3.15;;;2.30;;
28266;SDS011;15525;45.568;5.448;2022-07-12T12:46:04;3.42;;;2.10;;
28266;SDS011;15525;45.568;5.448;2022-07-12T12:48:30;3.50;;;2.30;;
28266;SDS011;15525;45.568;5.448;2022-07-12T12:51:08;2.90;;;2.40;;
28266;SDS011;15525;45.568;5.448;2022-07-12T12:53:36;2.60;;;2.40;;
28266;SDS011;15525;45.568;5.448;2022-07-12T12:56:05;2.08;;;1.92;;
28266;SDS011;15525;45.568;5.448;2022-07-12T12:58:33;2.70;;;2.50;;
28266;SDS011;15525;45.568;5.448;2022-07-12T13:00:58;2.53;;;2.30;;
28266;SDS011;15525;45.568;5.448;2022-07-12T13:03:24;5.10;;;2.30;;
28266;SDS011;15525;45.568;5.448;2022-07-12T13:05:49;3.55;;;2.45;;
28266;SDS011;15525;45.568;5.448;2022-07-12T13:08:16;2.03;;;1.90;;
28266;SDS011;15525;45.568;5.448;2022-07-12T13:10:42;3.83;;;1.88;;
28266;SDS011;15525;45.568;5.448;2022-07-12T13:13:09;2.90;;;1.80;;
28266;SDS011;15525;45.568;5.448;2022-07-12T13:15:36;4.90;;;1.85;;
28266;SDS011;15525;45.568;5.448;2022-07-12T13:18:02;2.47;;;1.83;;
28266;SDS011;15525;45.568;5.448;2022-07-12T13:20:28;2.38;;;1.63;;
28266;SDS011;15525;45.568;5.448;2022-07-12T13:22:55;2.90;;;1.80;;
28266;SDS011;15525;45.568;5.448;2022-07-12T13:25:20;1.70;;;1.60;;
28266;SDS011;15525;45.568;5.448;2022-07-12T13:27:47;4.70;;;1.80;;
28266;SDS011;15525;45.568;5.448;2022-07-12T13:30:13;1.85;;;1.65;;
28266;SDS011;15525;45.568;5.448;2022-07-12T13:32:40;1.70;;;1.60;;
28266;SDS011;15525;45.568;5.448;2022-07-12T13:35:07;2.05;;;1.60;;
28266;SDS011;15525;45.568;5.448;2022-07-12T13:37:34;2.60;;;1.52;;
28266;SDS011;15525;45.568;5.448;2022-07-12T13:40:00;1.60;;;1.40;;
28266;SDS011;15525;45.568;5.448;2022-07-12T13:42:46;3.08;;;1.33;;
28266;SDS011;15525;45.568;5.448;2022-07-12T13:45:16;2.20;;;1.15;;
28266;SDS011;15525;45.568;5.448;2022-07-12T13:47:46;1.33;;;1.20;;
28266;SDS011;15525;45.568;5.448;2022-07-12T13:50:12;1.80;;;1.40;;
28266;SDS011;15525;45.568;5.448;2022-07-12T13:52:40;2.08;;;1.20;;
28266;SDS011;15525;45.568;5.448;2022-07-12T13:55:07;1.88;;;1.25;;
28266;SDS011;15525;45.568;5.448;2022-07-12T13:57:34;1.30;;;1.20;;
28266;SDS011;15525;45.568;5.448;2022-07-12T14:00:01;2.45;;;1.35;;
28266;SDS011;15525;45.568;5.448;2022-07-12T14:02:28;2.13;;;1.45;;
28266;SDS011;15525;45.568;5.448;2022-07-12T14:04:53;2.30;;;1.30;;
28266;SDS011;15525;45.568;5.448;2022-07-12T14:07:19;2.50;;;1.30;;
28266;SDS011;15525;45.568;5.448;2022-07-12T14:09:45;2.55;;;1.63;;
28266;SDS011;15525;45.568;5.448;2022-07-12T14:12:11;2.63;;;1.30;;
28266;SDS011;15525;45.568;5.448;2022-07-12T14:14:36;4.63;;;1.30;;
28266;SDS011;15525;45.568;5.448;2022-07-12T14:17:20;1.90;;;1.30;;
28266;SDS011;15525;45.568;5.448;2022-07-12T14:19:46;1.70;;;1.20;;
28266;SDS011;15525;45.568;5.448;2022-07-12T14:22:12;2.03;;;1.30;;
28266;SDS011;15525;45.568;5.448;2022-07-12T14:24:37;1.77;;;1.30;;
28266;SDS011;15525;45.568;5.448;2022-07-12T14:27:03;1.45;;;1.20;;
28266;SDS011;15525;45.568;5.448;2022-07-12T14:29:29;1.58;;;1.20;;
28266;SDS011;15525;45.568;5.448;2022-07-12T14:31:54;1.25;;;1.10;;
28266;SDS011;15525;45.568;5.448;2022-07-12T14:34:21;1.52;;;1.20;;
28266;SDS011;15525;45.568;5.448;2022-07-12T14:36:47;1.30;;;1.20;;
28266;SDS011;15525;45.568;5.448;2022-07-12T14:39:13;2.47;;;1.38;;
28266;SDS011;15525;45.568;5.448;2022-07-12T14:41:38;1.20;;;1.10;;
28266;SDS011;15525;45.568;5.448;2022-07-12T14:44:04;1.60;;;1.25;;
28266;SDS011;15525;45.568;5.448;2022-07-12T14:46:32;2.10;;;1.25;;
28266;SDS011;15525;45.568;5.448;2022-07-12T14:48:58;1.38;;;1.20;;
28266;SDS011;15525;45.568;5.448;2022-07-12T14:51:23;1.23;;;1.13;;
28266;SDS011;15525;45.568;5.448;2022-07-12T14:53:48;1.67;;;1.02;;
28266;SDS011;15525;45.568;5.448;2022-07-12T14:56:17;1.63;;;1.10;;
28266;SDS011;15525;45.568;5.448;2022-07-12T14:58:45;1.67;;;1.17;;
28266;SDS011;15525;45.568;5.448;2022-07-12T15:01:10;1.33;;;1.23;;
28266;SDS011;15525;45.568;5.448;2022-07-12T15:03:36;1.30;;;1.10;;
28266;SDS011;15525;45.568;5.448;2022-07-12T15:06:01;2.58;;;1.25;;
28266;SDS011;15525;45.568;5.448;2022-07-12T15:08:28;1.75;;;1.40;;
28266;SDS011;15525;45.568;5.448;2022-07-12T15:10:54;1.33;;;1.20;;
28266;SDS011;15525;45.568;5.448;2022-07-12T15:13:21;3.65;;;1.30;;
28266;SDS011;15525;45.568;5.448;2022-07-12T15:15:46;1.48;;;1.20;;